Time;durP1;ratioP1;P1;durP2;ratioP2;P2;SDS_P1;SDS_P2;PMS_P1;PMS_P2;Temp;Humidity;BMP_temperature;BMP_pressure;BME280_temperature;BME280_humidity;BME280_pressure;Samples;Min_cycle;Max_cycle;Signal;HPM_P1;HPM_P2
2021/12/13 00:01:51;;;;;;;3.22;2.92;;;;;;;8.03;50.52;99474.19;5030901;28;20041;-78
2021/12/13 00:04:29;;;;;;;3.42;2.90;;;;;;;7.63;51.50;99416.16;5030658;28;20498;-77
2021/12/13 00:07:03;;;;;;;4.07;3.22;;;;;;;8.19;50.84;99474.22;5030822;28;20060;-78
2021/12/13 00:09:32;;;;;;;2.83;2.53;;;;;;;8.23;51.37;99473.72;5031448;28;20091;-76
2021/12/13 00:12:01;;;;;;;2.63;2.42;;;;;;;8.25;51.25;99470.94;5033230;28;20057;-78
2021/12/13 00:14:36;;;;;;;3.65;2.75;;;;;;;7.65;50.92;99389.72;5034448;28;20108;-77
2021/12/13 00:17:13;;;;;;;3.17;2.72;;;;;;;8.13;51.28;99470.41;5034456;28;20032;-78
2021/12/13 00:19:45;;;;;;;3.00;2.70;;;;;;;7.88;51.44;99431.94;5034178;28;20025;-78
2021/12/13 00:22:19;;;;;;;3.42;3.13;;;;;;;7.64;50.91;99402.03;5034207;28;20429;-78
2021/12/13 00:24:48;;;;;;;3.42;3.13;;;;;;;8.09;51.04;99468.28;5034280;28;20025;-77
2021/12/13 00:27:29;;;;;;;3.25;2.80;;;;;;;7.90;50.51;99446.56;5034261;28;20029;-78
2021/12/13 00:30:07;;;;;;;3.40;2.90;;;;;;;8.03;51.62;99477.63;5034274;28;20049;-78
2021/12/13 00:32:43;;;;;;;3.40;3.10;;;;;;;7.92;50.39;99463.00;5034175;28;20026;-77
2021/12/13 00:35:13;;;;;;;4.40;3.25;;;;;;;8.09;51.58;99484.88;5034174;28;20555;-77
2021/12/13 00:37:47;;;;;;;3.75;2.90;;;;;;;7.58;51.50;99409.75;5034130;28;20498;-78
2021/12/13 00:40:24;;;;;;;3.45;2.80;;;;;;;7.58;50.91;99415.81;5034024;28;20029;-78
2021/12/13 00:42:57;;;;;;;5.05;2.90;;;;;;;8.10;51.79;99493.56;5033945;28;20078;-78
2021/12/13 00:45:29;;;;;;;3.33;3.03;;;;;;;7.84;51.53;99446.41;5033648;28;20039;-77
2021/12/13 00:47:55;;;;;;;3.30;3.00;;;;;;;8.19;51.67;99487.38;5033808;28;20383;-76
2021/12/13 00:50:37;;;;;;;3.45;3.00;;;;;;;7.63;51.29;99387.25;5032328;28;20026;-78
2021/12/13 00:53:04;;;;;;;3.25;2.95;;;;;;;7.78;51.77;99431.28;5033714;28;20029;-77
2021/12/13 00:55:33;;;;;;;3.00;2.70;;;;;;;8.05;51.55;99483.56;5033631;28;20037;-77
2021/12/13 00:58:11;;;;;;;2.80;2.60;;;;;;;7.41;51.39;99385.22;5032318;28;20490;-77
2021/12/13 01:00:42;;;;;;;3.35;3.05;;;;;;;8.01;51.77;99474.34;5033353;28;20037;-78
2021/12/13 01:03:26;;;;;;;3.42;3.00;;;;;;;7.34;51.73;99377.16;5033511;28;20029;-76
2021/12/13 01:06:37;;;;;;;3.17;2.88;;;;;;;7.55;51.80;99416.16;5033561;28;20040;-77
2021/12/13 01:09:29;;;;;;;3.38;3.08;;;;;;;8.02;51.11;99483.88;5033300;28;20057;-77
2021/12/13 01:11:58;;;;;;;3.78;3.20;;;;;;;7.92;52.10;99478.78;5021972;28;20042;-77
2021/12/13 01:14:43;;;;;;;3.47;3.13;;;;;;;7.90;51.71;99482.56;5033359;28;20030;-78
2021/12/13 01:17:22;;;;;;;4.05;3.10;;;;;;;7.38;52.05;99424.13;5033396;28;20036;-77
2021/12/13 01:20:00;;;;;;;3.33;2.90;;;;;;;7.71;52.45;99486.28;5033176;28;20547;-77
2021/12/13 01:22:57;;;;;;;3.83;3.47;;;;;;;7.71;53.15;99477.59;5032065;28;20108;-78
2021/12/13 01:26:02;;;;;;;4.18;3.25;;;;;;;7.15;52.76;99392.38;5031979;28;20073;-77
2021/12/13 01:28:39;;;;;;;3.50;3.20;;;;;;;7.49;52.78;99442.25;5033177;28;20500;-78
2021/12/13 01:31:39;;;;;;;3.75;3.42;;;;;;;7.59;53.34;99435.84;5031565;28;20101;-78
2021/12/13 01:34:06;;;;;;;3.33;3.00;;;;;;;7.75;53.47;99456.09;5032518;28;20038;-78
2021/12/13 01:36:44;;;;;;;3.38;3.05;;;;;;;7.81;52.96;99480.91;5032778;28;20029;-78
2021/12/13 01:39:14;;;;;;;3.55;3.25;;;;;;;7.68;52.65;99467.41;5032886;28;20063;-78
2021/12/13 01:41:51;;;;;;;3.53;3.22;;;;;;;7.72;53.51;99466.09;5033046;28;20109;-77
2021/12/13 01:44:21;;;;;;;3.50;3.20;;;;;;;7.72;53.20;99469.53;5032831;28;20030;-78
2021/12/13 01:46:50;;;;;;;4.47;3.40;;;;;;;7.56;53.19;99456.38;5031443;28;20491;-78
2021/12/13 01:49:19;;;;;;;3.53;3.13;;;;;;;7.67;53.25;99474.47;5032654;28;20029;-78
2021/12/13 01:51:45;;;;;;;5.85;3.65;;;;;;;7.32;53.26;99421.16;5032642;28;20162;-77
2021/12/13 01:54:18;;;;;;;3.45;3.15;;;;;;;7.51;53.82;99477.88;5032641;28;20104;-76
2021/12/13 01:57:09;;;;;;;3.72;3.40;;;;;;;7.01;53.89;99397.28;5032365;28;20406;-77
2021/12/13 01:59:50;;;;;;;4.10;3.70;;;;;;;7.58;54.62;99478.06;5032441;28;20072;-77
2021/12/13 02:02:25;;;;;;;4.20;3.40;;;;;;;7.53;54.67;99481.16;5032395;28;20503;-78
2021/12/13 02:05:04;;;;;;;4.07;3.47;;;;;;;7.26;54.46;99420.97;5030935;28;20272;-77
2021/12/13 02:07:45;;;;;;;3.83;3.53;;;;;;;7.01;54.93;99385.94;5032329;28;20095;-78
2021/12/13 02:10:21;;;;;;;4.10;3.70;;;;;;;7.54;55.57;99477.56;5032052;28;20494;-77
2021/12/13 02:12:55;;;;;;;4.55;3.85;;;;;;;7.34;54.85;99442.81;5031949;28;20095;-78
2021/12/13 02:18:10;;;;;;;4.03;3.67;;;;;;;7.35;55.54;99459.41;5032377;28;20032;-77
2021/12/13 02:20:41;;;;;;;4.65;3.83;;;;;;;7.12;55.31;99427.66;5030769;28;20544;-77
2021/12/13 02:23:07;;;;;;;4.63;4.03;;;;;;;7.14;55.07;99430.94;5032132;28;20569;-76
2021/12/13 02:25:46;;;;;;;4.65;4.25;;;;;;;7.35;55.13;99498.81;5030780;28;20116;-78
2021/12/13 02:28:22;;;;;;;3.90;3.53;;;;;;;6.89;55.70;99435.28;5030661;28;20049;-77
2021/12/13 02:30:54;;;;;;;4.10;3.67;;;;;;;6.95;55.82;99460.06;5031995;28;20471;-77
2021/12/13 02:33:23;;;;;;;4.50;4.05;;;;;;;7.17;55.65;99495.44;5031557;28;20494;-77
2021/12/13 02:35:54;;;;;;;3.90;3.55;;;;;;;6.68;55.90;99422.50;5030331;28;20029;-78
2021/12/13 02:38:21;;;;;;;5.30;4.20;;;;;;;7.19;56.74;99488.22;5031691;28;20494;-78
2021/12/13 02:40:48;;;;;;;5.82;4.40;;;;;;;7.27;56.17;99483.00;5031508;28;20552;-77
2021/12/13 02:43:19;;;;;;;5.20;4.55;;;;;;;6.86;56.13;99417.22;5031791;28;20124;-78
2021/12/13 02:45:50;;;;;;;4.32;3.92;;;;;;;6.93;56.20;99417.41;5030392;28;20036;-78
2021/12/13 02:48:25;;;;;;;4.55;4.15;;;;;;;7.37;56.31;99496.03;5031468;28;20021;-78
2021/12/13 02:50:53;;;;;;;4.07;3.70;;;;;;;7.33;56.39;99500.75;5031581;28;20025;-77
2021/12/13 02:53:28;;;;;;;4.97;4.40;;;;;;;7.25;57.17;99487.59;5031586;28;20483;-78
2021/12/13 02:55:54;;;;;;;3.90;3.42;;;;;;;7.09;57.15;99472.59;5031654;28;20026;-78
2021/12/13 02:58:22;;;;;;;4.70;4.30;;;;;;;7.37;57.22;99494.22;5031404;28;20434;-78
2021/12/13 03:01:00;;;;;;;4.45;4.05;;;;;;;7.20;58.51;99503.00;5031173;28;20056;-77
2021/12/13 03:03:30;;;;;;;4.70;4.30;;;;;;;6.20;57.94;99349.63;5031410;28;20032;-78
2021/12/13 03:06:00;;;;;;;4.78;4.32;;;;;;;7.18;58.52;99502.34;5031498;28;20030;-78
2021/12/13 03:08:49;;;;;;;5.40;4.90;;;;;;;7.16;59.08;99502.50;5031331;28;20029;-79
2021/12/13 03:11:27;;;;;;;5.20;4.70;;;;;;;7.15;59.42;99507.91;5031187;28;20032;-79
2021/12/13 03:14:01;;;;;;;5.03;4.55;;;;;;;6.36;59.49;99386.44;5031360;28;20036;-78
2021/12/13 03:16:44;;;;;;;5.13;4.65;;;;;;;6.46;60.33;99432.72;5031369;28;20517;-77
2021/12/13 03:19:40;;;;;;;4.93;4.22;;;;;;;6.99;60.71;99508.66;5031200;28;20422;-79
2021/12/13 03:22:20;;;;;;;6.55;4.80;;;;;;;6.96;60.10;99515.03;5029617;28;20035;-78
2021/12/13 03:25:08;;;;;;;4.93;4.53;;;;;;;6.99;60.94;99511.28;5029855;28;20115;-78
2021/12/13 03:27:42;;;;;;;4.95;4.55;;;;;;;7.02;60.38;99510.97;5029727;28;20026;-79
2021/12/13 03:30:12;;;;;;;4.90;4.45;;;;;;;6.57;60.44;99450.81;5031237;28;20021;-78
2021/12/13 03:32:54;;;;;;;4.85;4.45;;;;;;;6.48;60.42;99431.59;5031260;28;20025;-78
2021/12/13 03:35:46;;;;;;;4.75;4.25;;;;;;;7.05;60.51;99517.69;5031335;28;20030;-77
2021/12/13 03:38:17;;;;;;;4.78;4.20;;;;;;;7.05;60.97;99522.94;5030794;28;20042;-78
2021/12/13 03:40:43;;;;;;;5.40;4.90;;;;;;;7.00;60.24;99507.66;5030976;28;20033;-78
2021/12/13 03:43:16;;;;;;;5.20;4.72;;;;;;;6.69;60.60;99487.16;5029873;28;20517;-78
2021/12/13 03:45:48;;;;;;;5.28;4.82;;;;;;;6.93;60.80;99522.41;5033596;28;20032;-78
2021/12/13 03:48:16;;;;;;;4.88;4.43;;;;;;;6.59;60.21;99460.19;5034801;28;20048;-78
2021/12/13 03:50:47;;;;;;;5.05;4.55;;;;;;;6.33;60.10;99414.78;5034821;28;20021;-79
2021/12/13 03:53:17;;;;;;;5.57;4.40;;;;;;;6.94;60.52;99532.75;5034848;28;20029;-78
2021/12/13 03:55:46;;;;;;;4.80;4.40;;;;;;;6.97;60.41;99545.56;5034877;28;20091;-78
2021/12/13 03:58:18;;;;;;;4.53;4.03;;;;;;;6.98;59.96;99530.63;5033548;28;20033;-78
2021/12/13 04:00:50;;;;;;;4.32;3.92;;;;;;;7.05;60.24;99518.53;5034621;28;20025;-78
2021/12/13 04:03:17;;;;;;;4.97;4.57;;;;;;;6.89;60.06;99485.13;5033378;28;20455;-78
2021/12/13 04:05:45;;;;;;;5.18;4.63;;;;;;;6.71;60.51;99460.78;5034551;28;20029;-79
2021/12/13 04:08:14;;;;;;;5.25;4.65;;;;;;;7.06;60.10;99504.41;5034538;28;20033;-79
2021/12/13 04:10:44;;;;;;;4.70;4.30;;;;;;;6.88;60.34;99475.63;5034449;28;20100;-78
2021/12/13 04:13:15;;;;;;;4.70;4.30;;;;;;;7.10;60.54;99515.44;5034403;28;20095;-78
2021/12/13 04:16:12;;;;;;;5.20;4.70;;;;;;;7.07;61.18;99521.81;5034561;28;20481;-78
2021/12/13 04:21:12;;;;;;;5.85;4.93;;;;;;;6.67;60.68;99477.75;5034053;28;20037;-78
2021/12/13 04:23:38;;;;;;;7.40;6.32;;;;;;;7.02;60.44;99529.34;5034230;28;20394;-78
2021/12/13 04:26:06;;;;;;;5.90;5.10;;;;;;;6.63;60.29;99461.50;5034036;28;20517;-78
2021/12/13 04:28:38;;;;;;;6.22;5.57;;;;;;;7.05;60.15;99525.56;5034130;28;20039;-78
2021/12/13 04:31:09;;;;;;;6.53;5.07;;;;;;;6.97;60.36;99511.44;5034417;28;20075;-78
2021/12/13 04:33:49;;;;;;;7.00;6.07;;;;;;;6.76;60.52;99482.13;5034043;28;20513;-79
2021/12/13 04:36:28;;;;;;;5.28;4.78;;;;;;;6.78;59.82;99480.16;5033880;28;20044;-78
2021/12/13 04:39:17;;;;;;;5.15;4.65;;;;;;;7.04;59.63;99530.00;5034035;28;20026;-78
2021/12/13 04:41:42;;;;;;;5.22;4.72;;;;;;;7.03;60.16;99530.97;5032577;28;20033;-78
2021/12/13 04:44:14;;;;;;;5.18;4.68;;;;;;;7.05;59.95;99525.56;5032599;28;20040;-79
2021/12/13 04:46:42;;;;;;;4.72;4.22;;;;;;;6.76;59.93;99482.13;5034032;28;20521;-78
2021/12/13 04:49:15;;;;;;;4.80;4.30;;;;;;;7.06;60.18;99524.59;5033855;28;20033;-78
2021/12/13 04:51:42;;;;;;;5.05;4.60;;;;;;;7.10;60.07;99523.31;5032519;28;20029;-78
2021/12/13 04:54:10;;;;;;;5.25;4.72;;;;;;;6.69;60.51;99446.97;5033806;28;20029;-78
2021/12/13 04:56:35;;;;;;;5.10;4.60;;;;;;;6.50;60.28;99410.44;5032391;28;20029;-78
2021/12/13 04:59:03;;;;;;;5.30;4.80;;;;;;;7.20;60.06;99516.97;5033587;28;20032;-78
2021/12/13 05:01:29;;;;;;;4.78;4.38;;;;;;;6.57;60.08;99446.41;5033581;28;20029;-78
2021/12/13 05:04:00;;;;;;;4.88;4.47;;;;;;;6.92;59.99;99489.25;5033593;28;20034;-78
2021/12/13 05:06:32;;;;;;;3.30;3.00;;;;;;;6.60;60.41;99459.19;5032409;28;20030;-78
2021/12/13 05:08:59;;;;;;;;;;;;;;;6.87;60.61;99523.00;5034009;28;20025;-78
2021/12/13 05:11:35;;;;;;;4.45;4.10;;;;;;;6.42;60.45;99432.19;5032187;28;19909;-78
2021/12/13 05:14:02;;;;;;;5.53;5.03;;;;;;;6.99;60.31;99527.84;5033256;28;20486;-78
2021/12/13 05:16:38;;;;;;;5.22;4.70;;;;;;;6.56;60.04;99455.25;5033381;28;20402;-79
2021/12/13 05:19:05;;;;;;;5.65;5.15;;;;;;;7.04;59.60;99519.50;5033190;28;20087;-78
2021/12/13 05:21:38;;;;;;;5.47;4.82;;;;;;;7.02;59.89;99545.09;5033158;28;20055;-78
2021/12/13 05:24:11;;;;;;;4.10;3.70;;;;;;;6.78;59.26;99516.91;5033245;28;20083;-77
2021/12/13 05:26:51;;;;;;;4.78;4.28;;;;;;;6.88;58.42;99538.59;5033170;28;20026;-78
2021/12/13 05:29:31;;;;;;;4.40;4.00;;;;;;;6.77;58.78;99549.34;5033227;28;20059;-77
2021/12/13 05:32:01;;;;;;;5.28;4.47;;;;;;;6.42;59.18;99486.44;5033285;28;20068;-77
2021/12/13 05:34:39;;;;;;;4.95;4.45;;;;;;;6.63;59.28;99519.22;5033037;28;20433;-77
2021/12/13 05:37:08;;;;;;;6.72;5.75;;;;;;;6.89;58.74;99555.19;5032852;28;20038;-78
2021/12/13 05:39:36;;;;;;;5.85;5.00;;;;;;;6.86;58.42;99556.31;5032831;28;20033;-77
2021/12/13 05:42:10;;;;;;;5.72;4.97;;;;;;;6.67;58.30;99535.47;5032988;28;20108;-77
2021/12/13 05:44:42;;;;;;;5.93;5.32;;;;;;;6.71;58.40;99544.72;5032830;28;20026;-77
2021/12/13 05:47:21;;;;;;;6.72;5.28;;;;;;;6.81;58.21;99550.69;5032709;28;20033;-77
2021/12/13 05:49:48;;;;;;;5.78;5.18;;;;;;;6.89;58.50;99553.38;5032723;28;20100;-77
2021/12/13 05:52:24;;;;;;;5.30;4.70;;;;;;;6.46;58.24;99511.41;5031229;28;20021;-77
2021/12/13 05:54:58;;;;;;;5.20;4.70;;;;;;;6.95;58.60;99563.25;5032524;28;20494;-78
2021/12/13 05:57:30;;;;;;;5.07;4.15;;;;;;;7.03;58.49;99551.97;5032098;28;20022;-78
2021/12/13 06:00:19;;;;;;;5.38;4.88;;;;;;;6.96;58.20;99549.16;5032085;28;20052;-79
2021/12/13 06:03:09;;;;;;;4.75;4.25;;;;;;;6.96;58.11;99559.66;5032029;28;20026;-78
2021/12/13 06:05:37;;;;;;;5.40;4.90;;;;;;;6.50;58.71;99483.88;5031155;28;20064;-79
2021/12/13 06:08:13;;;;;;;4.63;4.22;;;;;;;6.99;58.04;99575.09;5031668;28;20108;-77
2021/12/13 06:10:52;;;;;;;5.43;4.90;;;;;;;6.98;58.45;99568.19;5031892;28;20025;-78
2021/12/13 06:13:36;;;;;;;5.65;5.10;;;;;;;6.30;57.62;99459.66;5031898;28;20033;-78
2021/12/13 06:16:02;;;;;;;5.35;4.85;;;;;;;6.94;57.81;99581.78;5032249;28;20026;-78
2021/12/13 06:18:40;;;;;;;4.68;4.28;;;;;;;6.70;57.95;99540.47;5031981;28;20028;-79
2021/12/13 06:21:39;;;;;;;5.00;4.45;;;;;;;6.94;57.88;99597.53;5031787;28;20029;-78
2021/12/13 06:24:05;;;;;;;6.78;5.40;;;;;;;6.42;58.55;99504.81;5030520;28;20033;-78
2021/12/13 06:26:32;;;;;;;5.80;5.22;;;;;;;6.70;57.91;99566.69;5030614;28;20047;-78
2021/12/13 06:29:04;;;;;;;5.35;4.85;;;;;;;6.76;57.76;99587.06;5031626;28;20025;-78
2021/12/13 06:31:40;;;;;;;6.25;5.65;;;;;;;6.84;58.22;99607.31;5030539;28;20140;-78
2021/12/13 06:34:09;;;;;;;6.25;5.65;;;;;;;6.82;58.29;99610.06;5031762;28;20017;-78
2021/12/13 06:36:39;;;;;;;7.47;6.28;;;;;;;6.23;58.24;99514.50;5031327;28;20064;-77
2021/12/13 06:39:11;;;;;;;6.15;5.45;;;;;;;6.23;58.25;99524.97;5041849;28;20044;-77
2021/12/13 06:41:37;;;;;;;7.38;6.53;;;;;;;6.84;58.71;99609.94;5037428;28;20043;-77
2021/12/13 06:44:02;;;;;;;8.73;6.57;;;;;;;6.83;58.89;99618.78;5043673;28;20041;-78
2021/12/13 06:46:46;;;;;;;6.00;5.10;;;;;;;6.82;58.67;99620.56;5033448;28;20437;-77
2021/12/13 06:49:20;;;;;;;6.00;5.35;;;;;;;6.76;58.52;99615.94;5038228;28;20059;-78
2021/12/13 06:52:18;;;;;;;5.88;5.10;;;;;;;6.56;59.66;99604.75;5066759;28;20024;-77
2021/12/13 06:54:54;;;;;;;7.72;6.47;;;;;;;6.53;60.10;99612.09;5049864;28;20057;-78
2021/12/13 06:57:34;;;;;;;8.18;6.85;;;;;;;5.96;60.15;99535.53;5050736;28;20106;-79
2021/12/13 07:00:07;;;;;;;9.25;8.27;;;;;;;6.56;60.77;99628.38;5048444;28;20468;-79
2021/12/13 07:02:39;;;;;;;8.60;7.38;;;;;;;6.44;60.94;99611.19;5033567;28;20124;-79
2021/12/13 07:05:10;;;;;;;8.63;7.72;;;;;;;6.45;62.53;99636.47;5031440;28;20533;-78
2021/12/13 07:07:40;;;;;;;10.85;8.55;;;;;;;6.53;61.56;99648.81;5043921;28;20559;-79
2021/12/13 07:10:16;;;;;;;12.38;9.70;;;;;;;6.48;62.49;99638.78;5044573;28;20454;-78
2021/12/13 07:12:46;;;;;;;9.38;8.32;;;;;;;6.51;62.52;99635.84;5034366;28;20033;-76
2021/12/13 07:15:27;;;;;;;9.82;8.73;;;;;;;5.95;62.81;99570.56;5032857;28;20076;-79
2021/12/13 07:18:16;;;;;;;9.20;8.17;;;;;;;6.40;62.97;99625.59;5029826;28;20033;-78
2021/12/13 07:21:07;;;;;;;9.50;7.85;;;;;;;5.85;62.84;99543.56;5029185;28;20346;-79
2021/12/13 07:24:05;;;;;;;9.85;8.77;;;;;;;6.03;63.58;99575.91;5034823;28;20069;-80
2021/12/13 07:26:43;;;;;;;9.63;8.73;;;;;;;6.33;63.91;99648.97;5034729;28;20409;-79
2021/12/13 07:29:28;;;;;;;11.70;9.87;;;;;;;6.32;64.04;99656.97;5040317;28;20086;-79
2021/12/13 07:32:02;;;;;;;12.20;10.05;;;;;;;6.31;64.46;99663.19;5030534;28;20482;-79
2021/12/13 07:34:28;;;;;;;12.65;11.30;;;;;;;5.88;64.88;99593.03;5030883;28;20029;-79
2021/12/13 07:36:58;;;;;;;14.47;11.97;;;;;;;6.41;64.40;99674.44;5046444;28;20039;-79
2021/12/13 07:39:28;;;;;;;12.93;11.55;;;;;;;5.86;64.28;99581.88;5053148;28;20028;-79
2021/12/13 07:41:59;;;;;;;16.58;13.25;;;;;;;5.97;64.74;99600.09;5055664;28;20059;-78
2021/12/13 07:44:35;;;;;;;11.70;10.50;;;;;;;6.45;65.24;99673.19;5047244;28;20036;-79
2021/12/13 07:47:18;;;;;;;14.52;12.18;;;;;;;5.90;64.94;99609.47;5039904;28;20544;-80
2021/12/13 07:49:48;;;;;;;13.18;10.63;;;;;;;6.33;64.68;99690.91;5054733;28;20020;-79
2021/12/13 07:52:40;;;;;;;12.93;11.57;;;;;;;6.10;65.52;99660.00;5061555;28;20029;-80
2021/12/13 07:55:19;;;;;;;14.33;12.27;;;;;;;6.19;65.52;99667.81;5041383;28;20037;-79
2021/12/13 07:57:46;;;;;;;13.02;11.52;;;;;;;6.31;65.43;99694.66;5054913;28;20373;-80
2021/12/13 08:00:36;;;;;;;13.93;11.70;;;;;;;6.37;65.70;99709.81;5056265;28;20026;-79
2021/12/13 08:03:10;;;;;;;14.63;12.40;;;;;;;6.28;66.02;99706.28;5044207;28;20427;-79
2021/12/13 08:05:44;;;;;;;14.77;12.02;;;;;;;5.88;66.34;99656.75;5051501;28;20090;-79
2021/12/13 08:08:26;;;;;;;14.70;12.25;;;;;;;5.94;66.76;99663.22;5058741;28;20032;-79
2021/12/13 08:10:57;;;;;;;16.02;12.70;;;;;;;6.28;66.42;99711.50;5030398;28;20028;-79
2021/12/13 08:13:27;;;;;;;13.13;10.93;;;;;;;5.38;66.63;99568.06;5039122;28;20536;-79
2021/12/13 08:16:00;;;;;;;15.93;10.68;;;;;;;6.04;66.15;99677.97;5046675;28;20122;-77
2021/12/13 08:18:40;;;;;;;10.40;8.65;;;;;;;6.17;67.37;99710.88;5053661;28;20025;-79
2021/12/13 08:21:10;;;;;;;13.55;11.93;;;;;;;6.24;66.76;99706.72;5032424;28;20064;-79
2021/12/13 08:23:42;;;;;;;11.65;10.30;;;;;;;5.84;66.95;99652.78;5066187;28;20020;-79
2021/12/13 08:26:10;;;;;;;11.63;10.43;;;;;;;6.02;66.88;99694.81;5056299;28;20029;-79
2021/12/13 08:28:47;;;;;;;10.73;9.63;;;;;;;5.73;67.34;99650.34;5060158;28;20025;-79
2021/12/13 08:31:25;;;;;;;10.38;9.27;;;;;;;6.19;67.12;99722.03;5031934;28;20029;-78
2021/12/13 08:33:55;;;;;;;9.63;8.65;;;;;;;5.62;67.19;99645.28;5068128;28;20035;-79
2021/12/13 08:36:23;;;;;;;8.57;7.40;;;;;;;6.06;67.60;99717.16;5067447;28;20405;-79
2021/12/13 08:38:58;;;;;;;9.23;7.88;;;;;;;5.36;67.85;99611.88;5064009;28;20472;-78
2021/12/13 08:41:26;;;;;;;10.60;8.48;;;;;;;6.11;67.31;99717.53;5062081;28;20073;-79
2021/12/13 08:43:57;;;;;;;8.95;7.78;;;;;;;6.13;67.71;99723.44;5052188;28;20036;-79
2021/12/13 08:46:29;;;;;;;9.60;8.60;;;;;;;5.48;67.78;99632.66;5060150;28;20091;-79
2021/12/13 08:48:55;;;;;;;11.75;9.02;;;;;;;5.61;67.90;99664.59;5054248;28;20041;-79
2021/12/13 08:51:29;;;;;;;13.50;11.13;;;;;;;6.08;68.10;99723.06;5058723;28;20026;-78
2021/12/13 08:54:10;;;;;;;13.75;12.35;;;;;;;6.11;68.65;99738.50;5044834;28;20025;-79
2021/12/13 08:56:44;;;;;;;12.25;10.07;;;;;;;5.91;68.40;99694.97;5038786;28;20033;-80
2021/12/13 08:59:20;;;;;;;8.43;7.63;;;;;;;6.15;67.87;99725.94;5042563;28;20056;-79
2021/12/13 09:02:06;;;;;;;9.70;8.43;;;;;;;6.12;68.41;99721.81;5038043;28;20037;-79
2021/12/13 09:04:35;;;;;;;8.98;8.07;;;;;;;6.01;68.34;99733.31;5039042;28;20044;-78
2021/12/13 09:07:06;;;;;;;10.75;9.65;;;;;;;6.05;68.25;99723.34;5040005;28;20037;-79
2021/12/13 09:09:32;;;;;;;12.07;10.20;;;;;;;5.54;68.44;99656.47;5035937;28;20040;-79
2021/12/13 09:12:28;;;;;;;14.70;11.97;;;;;;;6.02;68.99;99732.34;5048466;28;20016;-79
2021/12/13 09:14:56;;;;;;;16.37;12.53;;;;;;;5.72;68.59;99672.25;5036006;28;20095;-79
2021/12/13 09:17:33;;;;;;;10.10;9.03;;;;;;;6.00;69.05;99720.34;5041537;28;20029;-80
2021/12/13 09:20:04;;;;;;;10.95;9.68;;;;;;;5.97;68.90;99716.22;5048877;28;20040;-80
2021/12/13 09:22:41;;;;;;;11.57;9.30;;;;;;;5.93;69.22;99725.31;5042126;28;20087;-80
2021/12/13 09:25:18;;;;;;;14.20;11.77;;;;;;;5.93;68.81;99717.44;5040372;28;20132;-80
2021/12/13 09:28:01;;;;;;;15.48;11.18;;;;;;;5.46;69.57;99663.41;5044014;28;20033;-78
2021/12/13 09:30:36;;;;;;;10.32;9.27;;;;;;;5.66;69.36;99699.03;5037235;28;20021;-80
2021/12/13 09:33:10;;;;;;;10.20;8.70;;;;;;;5.81;69.45;99717.72;5042767;28;20029;-79
2021/12/13 09:36:00;;;;;;;11.70;8.75;;;;;;;5.81;69.47;99721.19;5048385;28;20508;-78
2021/12/13 09:38:53;;;;;;;9.80;8.43;;;;;;;5.80;69.73;99718.69;5047081;28;20033;-79
2021/12/13 09:41:27;;;;;;;6.80;5.87;;;;;;;5.32;69.41;99655.03;5036492;28;20033;-79
2021/12/13 09:44:01;;;;;;;8.37;7.00;;;;;;;5.84;69.38;99712.22;5047091;28;20482;-79
2021/12/13 09:46:32;;;;;;;9.10;7.57;;;;;;;5.38;69.75;99635.31;5041998;28;20073;-80
2021/12/13 09:49:01;;;;;;;7.73;6.93;;;;;;;5.41;69.31;99638.47;5039097;28;20104;-80
2021/12/13 09:51:36;;;;;;;9.27;8.23;;;;;;;5.91;69.98;99708.91;5036897;28;20021;-79
2021/12/13 09:54:05;;;;;;;9.10;7.87;;;;;;;5.90;69.51;99719.53;5036337;28;20498;-80
2021/12/13 09:56:36;;;;;;;11.27;9.50;;;;;;;5.52;69.32;99650.56;5037102;28;20545;-80
2021/12/13 09:59:12;;;;;;;13.05;10.27;;;;;;;5.95;69.97;99710.28;5036518;28;20395;-80
2021/12/13 10:01:39;;;;;;;8.70;7.70;;;;;;;5.70;69.47;99666.34;5044051;28;20620;-80
2021/12/13 10:04:12;;;;;;;9.60;8.02;;;;;;;5.91;69.21;99705.44;5071708;28;20417;-79
2021/12/13 10:06:54;;;;;;;9.60;7.60;;;;;;;5.45;69.23;99630.31;5052569;28;20037;-79
2021/12/13 10:09:29;;;;;;;7.80;6.70;;;;;;;5.86;69.69;99710.28;5031011;28;20572;-80
2021/12/13 10:12:01;;;;;;;9.48;7.82;;;;;;;5.40;69.45;99647.28;5031929;28;20063;-80
2021/12/13 10:14:31;;;;;;;6.78;6.18;;;;;;;5.37;69.60;99631.88;5059712;28;20489;-79
2021/12/13 10:16:57;;;;;;;7.03;6.33;;;;;;;5.81;69.13;99684.50;5055162;28;20421;-79
2021/12/13 10:19:35;;;;;;;7.97;6.97;;;;;;;5.88;69.28;99698.69;5035595;28;20049;-80
2021/12/13 10:22:03;;;;;;;12.40;10.03;;;;;;;5.90;69.27;99711.66;5048074;28;20017;-79
2021/12/13 10:24:43;;;;;;;8.40;7.07;;;;;;;5.77;69.51;99685.75;5030030;28;20027;-79
2021/12/13 10:27:12;;;;;;;8.50;6.93;;;;;;;5.68;69.77;99661.25;5040863;28;20029;-78
2021/12/13 10:29:42;;;;;;;7.60;6.80;;;;;;;5.64;69.11;99646.78;5040343;28;20028;-80
2021/12/13 10:32:12;;;;;;;7.90;7.10;;;;;;;5.28;69.24;99590.00;5033735;28;20032;-79
2021/12/13 10:34:43;;;;;;;9.52;7.80;;;;;;;5.54;68.81;99624.22;5037519;28;20500;-78
2021/12/13 10:37:22;;;;;;;10.27;8.73;;;;;;;5.28;69.22;99595.25;5033885;28;20021;-79
2021/12/13 10:39:58;;;;;;;9.27;7.65;;;;;;;5.82;69.72;99704.50;5034075;28;20671;-78
2021/12/13 10:42:33;;;;;;;9.15;7.35;;;;;;;5.46;69.32;99645.06;5030858;28;20029;-78
2021/12/13 10:45:07;;;;;;;6.10;5.38;;;;;;;5.62;69.42;99666.25;5045127;28;20102;-78
2021/12/13 10:47:37;;;;;;;7.47;6.20;;;;;;;5.73;69.92;99700.13;5043839;28;20039;-79
2021/12/13 10:50:11;;;;;;;7.13;6.17;;;;;;;5.33;69.34;99637.53;5039632;28;21797;-78
2021/12/13 10:52:41;;;;;;;8.65;7.20;;;;;;;5.78;69.62;99707.53;5046093;28;20588;-78
2021/12/13 10:55:18;;;;;;;8.50;7.17;;;;;;;5.76;69.59;99697.22;5048665;28;20036;-78
2021/12/13 10:57:48;;;;;;;9.55;8.38;;;;;;;5.27;69.60;99617.16;5036337;28;20087;-78
2021/12/13 11:00:26;;;;;;;11.48;9.07;;;;;;;5.21;69.53;99621.16;5035426;28;20095;-78
2021/12/13 11:03:02;;;;;;;11.95;9.57;;;;;;;5.26;70.09;99645.13;5032883;28;20034;-79
2021/12/13 11:05:28;;;;;;;19.95;13.88;;;;;;;5.31;70.11;99660.41;5031438;28;20072;-78
2021/12/13 11:07:57;;;;;;;7.87;6.67;;;;;;;5.24;70.11;99641.00;5035091;28;20056;-79
2021/12/13 11:10:27;;;;;;;7.00;6.30;;;;;;;5.63;69.98;99701.94;5049551;28;20116;-79
2021/12/13 11:12:56;;;;;;;6.33;5.40;;;;;;;5.57;69.54;99674.53;5032517;28;20512;-78
2021/12/13 11:15:28;;;;;;;8.70;7.40;;;;;;;5.68;69.81;99691.84;5034678;28;20037;-79
2021/12/13 11:17:55;;;;;;;9.68;7.05;;;;;;;5.67;69.97;99693.66;5031972;28;20035;-78
2021/12/13 11:20:45;;;;;;;8.97;7.87;;;;;;;5.65;69.95;99697.38;5036709;28;20044;-79
2021/12/13 11:23:15;;;;;;;10.23;8.60;;;;;;;5.05;69.56;99582.47;5039565;28;20498;-84
2021/12/13 11:25:47;;;;;;;9.07;8.17;;;;;;;4.95;69.74;99563.34;5056495;28;20021;-83
2021/12/13 11:28:13;;;;;;;;;;;;;;;5.57;71.26;99681.56;5042762;28;20395;-83
2021/12/13 11:30:41;;;;;;;9.80;6.40;;;;;;;5.69;69.78;99685.66;5049663;28;20412;-83
2021/12/13 11:33:10;;;;;;;8.27;7.37;;;;;;;5.70;69.94;99685.50;5031603;28;20029;-83
2021/12/13 11:36:10;;;;;;;8.03;7.23;;;;;;;5.73;70.08;99687.00;5046437;28;20033;-82
2021/12/13 11:39:01;;;;;;;8.77;7.97;;;;;;;5.59;69.70;99654.25;5068442;28;20174;-83
2021/12/13 11:41:50;;;;;;;6.72;5.90;;;;;;;5.64;70.38;99687.88;5053011;28;20519;-83
2021/12/13 11:44:52;;;;;;;9.60;8.13;;;;;;;5.66;70.48;99678.06;5056489;28;20036;-83
2021/12/13 11:47:27;;;;;;;;;;;;;;;5.51;70.49;99682.13;5061202;28;20120;-83
2021/12/13 11:50:14;;;;;;;8.57;7.67;;;;;;;5.59;70.42;99674.38;5062147;28;19963;-82
2021/12/13 11:53:14;;;;;;;8.30;7.30;;;;;;;5.62;70.25;99680.16;5053300;28;20104;-83
2021/12/13 11:56:10;;;;;;;9.03;8.10;;;;;;;5.26;70.72;99623.34;5043311;28;20111;-83
2021/12/13 11:58:58;;;;;;;8.20;7.40;;;;;;;5.76;70.10;99671.00;5042902;28;20060;-82
2021/12/13 12:01:51;;;;;;;7.43;6.20;;;;;;;5.76;69.92;99676.25;5060606;28;20061;-83
2021/12/13 12:04:54;;;;;;;8.40;7.53;;;;;;;5.78;69.81;99681.34;5057872;28;20507;-83
2021/12/13 12:07:24;;;;;;;8.33;7.50;;;;;;;5.63;70.20;99657.41;5061184;28;20425;-82
2021/12/13 12:10:16;;;;;;;7.20;6.47;;;;;;;5.79;70.00;99677.75;5048659;28;20033;-83
2021/12/13 12:13:03;;;;;;;6.25;5.65;;;;;;;5.71;70.59;99683.72;5050724;28;20040;-82
2021/12/13 12:15:29;;;;;;;7.93;6.87;;;;;;;5.45;70.48;99659.13;5048224;28;20039;-83
2021/12/13 12:18:01;;;;;;;8.53;7.63;;;;;;;4.81;70.33;99549.91;5051956;28;20063;-83
2021/12/13 12:20:36;;;;;;;9.10;7.93;;;;;;;5.71;70.17;99699.44;5048182;28;20037;-82
2021/12/13 12:23:08;;;;;;;7.83;6.73;;;;;;;5.68;70.30;99692.69;5052992;28;20558;-82